createdAt,value
2019-05-09T00:01:33.880Z,5.60
2019-05-09T00:04:03.373Z,5.83
2019-05-09T00:06:33.959Z,5.13
2019-05-09T00:09:03.759Z,5.80
2019-05-09T00:11:33.568Z,6.13
2019-05-09T00:14:04.441Z,4.13
2019-05-09T00:16:33.533Z,7.03
2019-05-09T00:19:03.239Z,7.87
2019-05-09T00:21:33.681Z,5.23
2019-05-09T00:24:03.525Z,5.23
2019-05-09T00:26:33.892Z,4.40
2019-05-09T00:29:20.683Z,5.57
2019-05-09T00:31:56.552Z,6.03
2019-05-09T00:34:26.668Z,6.37
2019-05-09T00:36:55.150Z,4.97
2019-05-09T00:39:23.690Z,5.50
2019-05-09T00:41:53.954Z,5.87
2019-05-09T00:44:24.113Z,5.93
2019-05-09T00:46:54.279Z,5.10
2019-05-09T00:49:24.496Z,8.27
2019-05-09T00:51:54.080Z,5.37
2019-05-09T00:54:24.053Z,4.57
2019-05-09T00:56:53.944Z,5.70
2019-05-09T00:59:24.069Z,7.27
2019-05-09T01:01:54.282Z,5.83
2019-05-09T01:04:24.125Z,3.97
2019-05-09T01:06:54.000Z,5.53
2019-05-09T01:09:24.181Z,3.73
2019-05-09T01:11:53.477Z,7.43
2019-05-09T01:14:23.403Z,4.67
2019-05-09T01:16:53.454Z,4.03
2019-05-09T01:19:23.325Z,4.40
2019-05-09T01:21:54.056Z,5.80
2019-05-09T01:24:23.268Z,4.87
2019-05-09T01:26:54.117Z,4.07
2019-05-09T01:29:23.103Z,5.60
2019-05-09T01:31:54.121Z,5.07
2019-05-09T01:34:25.458Z,4.73
2019-05-09T01:37:07.481Z,6.90
2019-05-09T01:39:37.634Z,5.67
2019-05-09T01:42:06.257Z,4.57
2019-05-09T01:44:34.964Z,3.57
2019-05-09T01:47:04.005Z,5.13
2019-05-09T01:49:34.481Z,4.80
2019-05-09T01:52:03.544Z,4.97
2019-05-09T01:54:34.088Z,4.60
2019-05-09T01:57:03.322Z,6.37
2019-05-09T01:59:33.915Z,3.37
2019-05-09T02:02:08.122Z,5.63
2019-05-09T02:04:33.568Z,6.17
2019-05-09T02:07:04.043Z,4.90
2019-05-09T02:09:34.270Z,4.73
2019-05-09T02:12:04.023Z,4.67
2019-05-09T02:14:34.727Z,8.67
2019-05-09T02:17:14.061Z,6.13
2019-05-09T02:19:44.462Z,6.93
2019-05-09T02:22:31.179Z,7.20
2019-05-09T02:25:00.047Z,8.30
2019-05-09T02:27:28.894Z,5.80
2019-05-09T02:29:57.779Z,4.13
2019-05-09T02:32:26.289Z,7.73
2019-05-09T02:34:55.041Z,7.80
2019-05-09T02:37:23.584Z,8.27
2019-05-09T02:39:52.171Z,7.03
2019-05-09T02:42:20.642Z,6.27
2019-05-09T02:44:49.449Z,3.70
2019-05-09T02:47:28.530Z,5.93
2019-05-09T02:49:58.739Z,7.03
2019-05-09T02:52:28.700Z,5.90
2019-05-09T02:54:58.419Z,8.30
2019-05-09T02:57:29.354Z,5.47
2019-05-09T03:00:01.905Z,5.83
2019-05-09T03:02:43.835Z,10.00
2019-05-09T03:05:12.513Z,5.00
2019-05-09T03:07:50.242Z,5.17
2019-05-09T03:10:22.599Z,4.33
2019-05-09T03:12:51.242Z,6.80
2019-05-09T03:15:20.528Z,6.47
2019-05-09T03:17:49.887Z,5.70
2019-05-09T03:20:28.939Z,5.50
2019-05-09T03:22:58.347Z,6.97
2019-05-09T03:25:28.883Z,5.30
2019-05-09T03:28:04.469Z,7.17
2019-05-09T03:30:34.615Z,6.37
2019-05-09T03:33:03.189Z,4.33
2019-05-09T03:35:31.743Z,2.70
2019-05-09T03:38:08.144Z,4.00
2019-05-09T03:40:39.312Z,3.00
2019-05-09T03:43:08.175Z,5.60
2019-05-09T03:45:43.942Z,5.00
2019-05-09T03:48:19.590Z,3.80
2019-05-09T03:50:48.719Z,3.30
2019-05-09T03:53:18.457Z,4.80
2019-05-09T03:55:47.724Z,4.30
2019-05-09T03:58:23.633Z,5.43
2019-05-09T04:00:52.097Z,6.47
2019-05-09T04:03:20.807Z,3.20
2019-05-09T04:05:58.606Z,4.77
2019-05-09T04:08:19.943Z,6.50
2019-05-09T04:10:50.445Z,4.40
2019-05-09T04:13:20.668Z,4.30
2019-05-09T04:15:49.493Z,5.60
2019-05-09T04:18:18.017Z,3.10
2019-05-09T04:20:48.242Z,5.00
2019-05-09T04:23:18.662Z,4.80
2019-05-09T04:26:07.539Z,5.20
2019-05-09T04:28:39.627Z,4.10
2019-05-09T04:31:07.371Z,3.63
2019-05-09T04:33:38.280Z,3.73
2019-05-09T04:36:08.335Z,6.07
2019-05-09T04:38:39.937Z,5.50
2019-05-09T04:41:08.290Z,4.53
2019-05-09T04:43:39.681Z,3.47
2019-05-09T04:46:12.840Z,3.90
2019-05-09T04:48:38.635Z,4.20
2019-05-09T04:51:08.072Z,4.53
2019-05-09T04:53:39.312Z,7.53
2019-05-09T04:56:25.127Z,6.13
2019-05-09T04:58:53.657Z,2.30
2019-05-09T05:01:23.778Z,2.73
2019-05-09T05:03:54.250Z,5.23
2019-05-09T05:06:22.824Z,2.47
2019-05-09T05:08:51.396Z,3.87
2019-05-09T05:11:19.856Z,5.77
2019-05-09T05:13:48.337Z,2.63
2019-05-09T05:16:18.456Z,6.87
2019-05-09T05:18:47.810Z,5.50
2019-05-09T05:21:20.041Z,4.27
2019-05-09T05:23:48.264Z,3.97
2019-05-09T05:26:18.555Z,7.63
2019-05-09T05:28:47.533Z,6.73
2019-05-09T05:31:18.067Z,4.63
2019-05-09T05:33:51.133Z,6.00
2019-05-09T05:36:19.806Z,4.97
2019-05-09T05:38:48.320Z,3.53
2019-05-09T05:41:18.348Z,3.83
2019-05-09T05:43:48.014Z,3.20
2019-05-09T05:46:34.559Z,7.30
2019-05-09T05:49:03.059Z,4.97
2019-05-09T05:51:33.167Z,5.43
2019-05-09T05:54:02.493Z,6.43
2019-05-09T05:56:31.011Z,4.90
2019-05-09T05:58:59.562Z,6.47
2019-05-09T06:01:28.134Z,4.80
2019-05-09T06:03:58.615Z,4.37
2019-05-09T06:06:27.912Z,4.20
2019-05-09T06:08:57.955Z,4.13
2019-05-09T06:11:28.119Z,3.90
2019-05-09T06:14:04.041Z,6.60
2019-05-09T06:16:28.093Z,6.70
2019-05-09T06:18:58.582Z,3.87
2019-05-09T06:21:28.262Z,8.63
2019-05-09T06:23:58.437Z,7.53
2019-05-09T06:26:29.202Z,8.67
2019-05-09T06:28:57.727Z,9.73
2019-05-09T06:31:28.314Z,8.30
2019-05-09T06:33:57.806Z,7.67
2019-05-09T06:36:28.330Z,6.10
2019-05-09T06:38:58.782Z,3.27
2019-05-09T06:41:28.541Z,6.77
2019-05-09T06:44:13.632Z,6.63
2019-05-09T06:46:34.974Z,4.67
2019-05-09T06:49:21.547Z,7.47
2019-05-09T06:51:35.397Z,8.10
2019-05-09T06:54:03.909Z,5.57
2019-05-09T06:56:32.430Z,5.53
2019-05-09T06:59:01.055Z,7.73
2019-05-09T07:01:48.164Z,6.10
2019-05-09T07:04:18.445Z,5.73
2019-05-09T07:06:51.450Z,4.63
2019-05-09T07:09:34.022Z,6.00
2019-05-09T07:12:02.758Z,3.90
2019-05-09T07:14:37.554Z,5.77
2019-05-09T07:17:03.346Z,5.47
2019-05-09T07:19:31.942Z,7.37
2019-05-09T07:22:02.195Z,6.17
2019-05-09T07:24:38.205Z,8.63
2019-05-09T07:27:08.459Z,6.07
2019-05-09T07:29:37.655Z,5.77
2019-05-09T07:32:07.989Z,7.20
2019-05-09T07:34:41.092Z,4.63
2019-05-09T07:37:09.682Z,6.53
2019-05-09T07:39:38.211Z,5.27
2019-05-09T07:42:07.706Z,6.13
2019-05-09T07:44:47.988Z,5.90
2019-05-09T07:47:07.504Z,7.40
2019-05-09T07:49:37.729Z,7.43
2019-05-09T07:52:09.916Z,7.03
2019-05-09T07:54:37.705Z,9.30
2019-05-09T07:57:08.349Z,8.77
2019-05-09T07:59:38.751Z,7.03
2019-05-09T08:02:08.771Z,9.57
2019-05-09T08:04:38.653Z,6.90
2019-05-09T08:07:08.422Z,7.67
2019-05-09T08:09:38.792Z,7.17
2019-05-09T08:12:08.767Z,9.30
2019-05-09T08:14:37.858Z,5.43
2019-05-09T08:17:08.546Z,7.60
2019-05-09T08:19:38.049Z,10.97
2019-05-09T08:22:07.946Z,9.47
2019-05-09T08:24:38.055Z,8.20
2019-05-09T08:27:08.538Z,6.20
2019-05-09T08:29:38.734Z,7.03
2019-05-09T08:32:07.524Z,7.43
2019-05-09T08:34:37.784Z,12.07
2019-05-09T08:37:08.094Z,10.43
2019-05-09T08:39:38.265Z,5.73
2019-05-09T08:42:08.600Z,7.07
2019-05-09T08:44:38.298Z,6.43
2019-05-09T08:47:07.936Z,6.80
2019-05-09T08:49:38.190Z,6.27
2019-05-09T08:52:15.521Z,5.60
2019-05-09T08:54:48.408Z,9.73
2019-05-09T08:57:18.269Z,8.53
2019-05-09T08:59:49.758Z,6.07
2019-05-09T09:02:21.929Z,4.27
2019-05-09T09:04:48.791Z,5.60
2019-05-09T09:07:18.976Z,8.10
2019-05-09T09:09:48.286Z,5.47
2019-05-09T09:12:27.140Z,7.50
2019-05-09T09:14:47.788Z,8.17
2019-05-09T09:17:18.725Z,9.07
2019-05-09T09:19:49.560Z,7.17
2019-05-09T09:22:18.698Z,5.03
2019-05-09T09:24:48.179Z,7.27
2019-05-09T09:27:18.213Z,5.87
2019-05-09T09:29:48.335Z,6.10
2019-05-09T09:32:18.908Z,9.43
2019-05-09T09:34:48.536Z,8.87
2019-05-09T09:37:18.471Z,6.97
2019-05-09T09:39:48.786Z,5.90
2019-05-09T09:42:19.939Z,7.63
2019-05-09T09:44:48.215Z,11.27
2019-05-09T09:47:22.805Z,5.70
2019-05-09T09:49:49.121Z,6.17
2019-05-09T09:52:18.808Z,7.70
2019-05-09T09:54:48.223Z,8.73
2019-05-09T09:57:19.076Z,6.60
2019-05-09T09:59:54.668Z,7.07
2019-05-09T10:02:27.665Z,6.27
2019-05-09T10:04:55.353Z,6.27
2019-05-09T10:07:23.864Z,10.87
2019-05-09T10:09:52.359Z,6.77
2019-05-09T10:12:21.565Z,5.53
2019-05-09T10:14:57.875Z,4.87
2019-05-09T10:17:34.390Z,5.57
2019-05-09T10:20:14.387Z,6.20
2019-05-09T10:22:46.395Z,7.97
2019-05-09T10:25:13.371Z,6.50
2019-05-09T10:27:42.271Z,9.77
2019-05-09T10:30:11.256Z,5.03
2019-05-09T10:32:39.990Z,7.37
2019-05-09T10:35:09.277Z,5.83
2019-05-09T10:37:39.292Z,5.90
2019-05-09T10:40:08.151Z,5.30
2019-05-09T10:42:48.328Z,9.80
2019-05-09T10:45:39.983Z,7.13
2019-05-09T10:48:08.166Z,5.93
2019-05-09T10:50:43.128Z,8.73
2019-05-09T10:53:08.179Z,5.97
2019-05-09T10:55:38.550Z,5.17
2019-05-09T10:58:08.067Z,5.33
2019-05-09T11:00:39.378Z,7.13
2019-05-09T11:03:08.796Z,5.00
2019-05-09T11:05:37.555Z,5.00
2019-05-09T11:08:08.131Z,4.40
2019-05-09T11:10:38.747Z,4.33
2019-05-09T11:13:07.587Z,6.13
2019-05-09T11:15:37.619Z,6.13
2019-05-09T11:18:08.108Z,4.43
2019-05-09T11:20:36.987Z,6.80
2019-05-09T11:23:07.860Z,4.97
2019-05-09T11:25:38.073Z,4.90
2019-05-09T11:28:12.718Z,3.40
2019-05-09T11:30:38.715Z,5.13
2019-05-09T11:33:07.805Z,7.07
2019-05-09T11:35:37.997Z,6.23
2019-05-09T11:38:08.524Z,6.93
2019-05-09T11:40:37.891Z,5.87
2019-05-09T11:43:06.581Z,7.27
2019-05-09T11:45:35.147Z,3.70
2019-05-09T11:48:03.702Z,4.23
2019-05-09T11:50:32.254Z,4.87
2019-05-09T11:53:00.762Z,6.77
2019-05-09T11:55:35.732Z,7.33
2019-05-09T11:57:59.585Z,5.10
2019-05-09T12:00:29.400Z,6.37
2019-05-09T12:02:58.368Z,5.03
2019-05-09T12:05:28.769Z,7.40
2019-05-09T12:07:58.140Z,6.17
2019-05-09T12:10:28.534Z,9.03
2019-05-09T12:12:57.797Z,6.70
2019-05-09T12:15:28.841Z,4.77
2019-05-09T12:18:02.202Z,6.20
2019-05-09T12:20:27.705Z,5.27
2019-05-09T12:22:58.443Z,5.53
2019-05-09T12:25:28.633Z,4.80
2019-05-09T12:27:58.412Z,6.20
2019-05-09T12:30:28.479Z,4.73
2019-05-09T12:32:58.937Z,7.03
2019-05-09T12:35:27.500Z,6.43
2019-05-09T12:37:56.032Z,4.97
2019-05-09T12:40:24.560Z,5.83
2019-05-09T12:42:53.620Z,8.17
2019-05-09T12:45:22.194Z,3.60
2019-05-09T12:48:06.265Z,4.43
2019-05-09T12:50:22.262Z,4.70
2019-05-09T12:52:50.771Z,4.70
2019-05-09T12:55:19.353Z,5.67
2019-05-09T12:57:48.963Z,5.07
2019-05-09T13:00:19.594Z,6.27
2019-05-09T13:02:48.063Z,6.33
2019-05-09T13:05:18.194Z,5.27
2019-05-09T13:07:48.515Z,4.13
2019-05-09T13:10:19.366Z,4.23
2019-05-09T13:12:48.969Z,6.83
2019-05-09T13:15:20.956Z,5.03
2019-05-09T13:17:50.982Z,5.80
2019-05-09T13:20:19.590Z,7.10
2019-05-09T13:22:48.090Z,3.60
2019-05-09T13:25:18.762Z,4.60
2019-05-09T13:27:52.502Z,5.67
2019-05-09T13:30:20.887Z,3.43
2019-05-09T13:32:49.522Z,4.03
2019-05-09T13:35:19.839Z,4.40
2019-05-09T13:37:49.007Z,5.53
2019-05-09T13:40:18.909Z,4.90
2019-05-09T13:42:48.976Z,4.63
2019-05-09T13:45:18.625Z,4.00
2019-05-09T13:47:48.473Z,4.27
2019-05-09T13:50:18.622Z,3.60
2019-05-09T13:52:48.528Z,7.03
2019-05-09T13:55:17.835Z,4.60
2019-05-09T13:57:48.746Z,6.00
2019-05-09T14:00:18.816Z,6.07
2019-05-09T14:02:48.828Z,8.03
2019-05-09T14:05:18.947Z,5.57
2019-05-09T14:07:49.189Z,7.53
2019-05-09T14:10:18.541Z,6.83
2019-05-09T14:13:04.364Z,7.47
2019-05-09T14:15:18.469Z,6.20
2019-05-09T14:17:52.618Z,9.70
2019-05-09T14:20:19.208Z,8.40
2019-05-09T14:22:48.997Z,7.97
2019-05-09T14:25:19.608Z,7.57
2019-05-09T14:27:49.775Z,8.47
2019-05-09T14:30:19.749Z,7.67
2019-05-09T14:32:49.725Z,9.93
2019-05-09T14:35:18.672Z,7.87
2019-05-09T14:37:48.751Z,6.50
2019-05-09T14:40:17.737Z,6.17
2019-05-09T14:42:46.325Z,6.33
2019-05-09T14:45:15.151Z,8.23
2019-05-09T14:47:44.702Z,6.20
2019-05-09T14:50:13.220Z,8.73
2019-05-09T14:52:41.739Z,9.50
2019-05-09T14:55:11.177Z,6.60
2019-05-09T14:57:39.766Z,6.13
2019-05-09T15:00:09.222Z,8.50
2019-05-09T15:02:38.913Z,6.93
2019-05-09T15:05:09.536Z,8.17
2019-05-09T15:07:39.117Z,9.10
2019-05-09T15:10:08.624Z,7.27
2019-05-09T15:12:38.979Z,7.33
2019-05-09T15:15:09.450Z,5.57
2019-05-09T15:17:38.140Z,11.07
2019-05-09T15:20:08.753Z,11.03
2019-05-09T15:22:38.699Z,9.13
2019-05-09T15:25:08.804Z,11.67
2019-05-09T15:27:38.505Z,11.17
2019-05-09T15:30:08.931Z,9.47
2019-05-09T15:32:37.841Z,10.33
2019-05-09T15:35:08.944Z,8.63
2019-05-09T15:37:38.623Z,7.50
2019-05-09T15:40:09.007Z,5.83
2019-05-09T15:42:38.924Z,6.07
2019-05-09T15:45:09.648Z,5.87
2019-05-09T15:47:38.880Z,7.43
2019-05-09T15:50:18.643Z,7.00
2019-05-09T15:52:39.631Z,6.27
2019-05-09T15:55:09.431Z,5.93
2019-05-09T15:57:38.365Z,7.57
2019-05-09T16:00:09.916Z,8.27
2019-05-09T16:02:39.331Z,8.20
2019-05-09T16:05:10.502Z,9.73
2019-05-09T16:07:39.519Z,7.50
2019-05-09T16:10:10.996Z,9.53
2019-05-09T16:12:39.681Z,9.37
2019-05-09T16:15:08.674Z,9.40
2019-05-09T16:17:39.264Z,10.30
2019-05-09T16:20:08.407Z,10.63
2019-05-09T16:22:39.420Z,10.37
2019-05-09T16:25:09.095Z,11.40
2019-05-09T16:27:38.027Z,9.07
2019-05-09T16:30:09.563Z,10.07
2019-05-09T16:32:38.057Z,9.87
2019-05-09T16:35:08.026Z,10.67
2019-05-09T16:37:57.362Z,11.27
2019-05-09T16:40:08.643Z,10.03
2019-05-09T16:42:38.162Z,19.03
2019-05-09T16:45:09.571Z,18.17
2019-05-09T16:47:38.087Z,16.53
2019-05-09T16:50:12.240Z,15.57
2019-05-09T16:52:43.562Z,13.63
2019-05-09T16:55:18.484Z,17.67
2019-05-09T16:57:48.088Z,13.33
2019-05-09T17:00:38.148Z,11.27
2019-05-09T17:03:08.115Z,12.63
2019-05-09T17:05:37.488Z,12.87
2019-05-09T17:08:08.189Z,14.30
2019-05-09T17:10:36.599Z,10.83
2019-05-09T17:13:07.658Z,13.37
2019-05-09T17:15:41.810Z,14.07
2019-05-09T17:18:10.371Z,13.27
2019-05-09T17:20:40.605Z,12.63
2019-05-09T17:23:23.302Z,11.63
2019-05-09T17:25:51.917Z,17.03
2019-05-09T17:28:20.570Z,14.97
2019-05-09T17:30:49.502Z,12.10
2019-05-09T17:33:18.425Z,14.80
2019-05-09T17:35:48.255Z,12.73
2019-05-09T17:38:18.035Z,10.70
2019-05-09T17:40:48.424Z,10.97
2019-05-09T17:43:18.327Z,12.53
2019-05-09T17:45:47.814Z,9.27
2019-05-09T17:48:18.276Z,11.13
2019-05-09T17:50:46.732Z,12.30
2019-05-09T17:53:15.275Z,12.90
2019-05-09T17:55:43.857Z,13.57
2019-05-09T17:58:26.039Z,10.90
2019-05-09T18:00:42.548Z,10.93
2019-05-09T18:03:11.103Z,11.00
2019-05-09T18:05:39.948Z,9.67
2019-05-09T18:08:08.510Z,13.10
2019-05-09T18:10:38.033Z,11.23
2019-05-09T18:13:07.908Z,7.77
2019-05-09T18:15:37.877Z,9.20
2019-05-09T18:18:06.648Z,8.07
2019-05-09T18:20:37.716Z,7.50
2019-05-09T18:23:07.958Z,9.80
2019-05-09T18:25:38.004Z,8.37
2019-05-09T18:28:06.954Z,8.40
2019-05-09T18:30:35.479Z,6.70
2019-05-09T18:33:14.417Z,7.63
2019-05-09T18:35:42.937Z,8.23
2019-05-09T18:38:14.580Z,10.57
2019-05-09T18:40:43.393Z,7.67
2019-05-09T18:43:11.944Z,7.50
2019-05-09T18:45:40.483Z,10.80
2019-05-09T18:48:11.357Z,8.93
2019-05-09T18:50:40.084Z,5.50
2019-05-09T18:53:11.590Z,8.07
2019-05-09T18:55:40.548Z,11.07
2019-05-09T18:58:09.522Z,11.00
2019-05-09T19:00:38.262Z,9.33
2019-05-09T19:03:06.841Z,6.63
2019-05-09T19:05:36.575Z,5.67
2019-05-09T19:08:05.139Z,7.60
2019-05-09T19:10:33.775Z,9.57
2019-05-09T19:13:02.367Z,4.87
2019-05-09T19:15:39.747Z,7.90
2019-05-09T19:18:19.485Z,5.50
2019-05-09T19:20:52.677Z,6.50
2019-05-09T19:23:21.837Z,6.03
2019-05-09T19:25:50.355Z,5.10
2019-05-09T19:28:18.893Z,5.63
2019-05-09T19:30:47.368Z,6.10
2019-05-09T19:33:16.656Z,7.10
2019-05-09T19:35:45.204Z,8.70
2019-05-09T19:38:13.732Z,7.80
2019-05-09T19:40:42.317Z,5.77
2019-05-09T19:43:10.836Z,8.17
2019-05-09T19:45:40.154Z,10.00
2019-05-09T19:48:08.668Z,5.83
2019-05-09T19:50:37.204Z,4.33
2019-05-09T19:53:05.863Z,6.93
2019-05-09T19:55:34.395Z,7.13
2019-05-09T19:58:02.994Z,6.13
2019-05-09T20:00:31.461Z,5.37
2019-05-09T20:02:59.926Z,5.27
2019-05-09T20:05:28.459Z,4.80
2019-05-09T20:07:57.486Z,9.57
2019-05-09T20:10:44.517Z,7.67
2019-05-09T20:13:14.846Z,6.70
2019-05-09T20:15:43.452Z,5.23
2019-05-09T20:18:11.997Z,8.67
2019-05-09T20:20:40.620Z,6.13
2019-05-09T20:23:09.376Z,5.43
2019-05-09T20:25:37.886Z,6.70
2019-05-09T20:28:06.617Z,4.97
2019-05-09T20:30:35.303Z,5.17
2019-05-09T20:33:03.854Z,6.13
2019-05-09T20:35:32.381Z,8.43
2019-05-09T20:38:01.117Z,7.33
2019-05-09T20:40:30.093Z,8.93
2019-05-09T20:42:58.853Z,6.57
2019-05-09T20:45:27.501Z,9.70
2019-05-09T20:47:56.243Z,8.97
2019-05-09T20:50:24.967Z,9.10
2019-05-09T20:53:08.420Z,10.30
2019-05-09T20:55:24.117Z,10.90
2019-05-09T20:57:52.817Z,13.17
2019-05-09T21:00:21.595Z,12.60
2019-05-09T21:02:50.315Z,14.77
2019-05-09T21:05:19.002Z,12.63
2019-05-09T21:07:47.682Z,13.80
2019-05-09T21:10:16.638Z,14.13
2019-05-09T21:12:45.365Z,13.37
2019-05-09T21:15:14.201Z,17.00
2019-05-09T21:17:42.929Z,14.53
2019-05-09T21:20:11.592Z,17.27
2019-05-09T21:22:40.263Z,13.53
2019-05-09T21:25:09.357Z,15.27
2019-05-09T21:27:38.118Z,18.43
2019-05-09T21:30:10.198Z,16.77
2019-05-09T21:32:38.974Z,14.07
2019-05-09T21:35:07.886Z,18.17
2019-05-09T21:37:36.415Z,22.43
2019-05-09T21:40:09.292Z,15.93
2019-05-09T21:42:37.838Z,12.67
2019-05-09T21:45:06.665Z,12.97
2019-05-09T21:47:35.212Z,15.80
2019-05-09T21:50:07.615Z,10.60
2019-05-09T21:52:36.160Z,11.73
2019-05-09T21:55:05.177Z,14.07
2019-05-09T21:57:33.671Z,15.20
2019-05-09T22:00:02.305Z,12.13
2019-05-09T22:02:30.922Z,11.63
2019-05-09T22:04:59.455Z,16.97
2019-05-09T22:07:27.932Z,16.00
2019-05-09T22:09:56.466Z,9.83
2019-05-09T22:12:24.993Z,11.07
2019-05-09T22:14:53.650Z,11.30
2019-05-09T22:17:23.773Z,13.80
2019-05-09T22:19:52.265Z,12.40
2019-05-09T22:22:22.122Z,11.10
2019-05-09T22:24:51.512Z,12.53
2019-05-09T22:27:20.006Z,12.67
2019-05-09T22:29:48.490Z,13.53
2019-05-09T22:32:17.076Z,12.27
2019-05-09T22:34:45.579Z,18.07
2019-05-09T22:37:14.175Z,10.47
2019-05-09T22:39:42.638Z,12.20
2019-05-09T22:42:11.150Z,11.93
2019-05-09T22:44:39.642Z,9.60
2019-05-09T22:47:08.169Z,14.80
2019-05-09T22:49:36.760Z,12.60
2019-05-09T22:52:06.058Z,9.70
2019-05-09T22:54:34.547Z,10.40
2019-05-09T22:57:03.054Z,9.33
2019-05-09T22:59:31.618Z,12.17
2019-05-09T23:02:06.291Z,10.23
2019-05-09T23:04:30.490Z,10.50
2019-05-09T23:07:00.579Z,15.63
2019-05-09T23:09:29.145Z,11.87
2019-05-09T23:11:57.712Z,7.63
2019-05-09T23:14:27.216Z,7.90
2019-05-09T23:16:55.712Z,12.40
2019-05-09T23:19:24.172Z,14.43
2019-05-09T23:21:52.680Z,10.40
2019-05-09T23:24:28.401Z,10.67
2019-05-09T23:26:53.134Z,10.53
2019-05-09T23:29:22.242Z,10.17
2019-05-09T23:32:04.099Z,9.07
2019-05-09T23:34:33.316Z,12.03
2019-05-09T23:37:01.776Z,10.90
2019-05-09T23:39:32.061Z,13.70
2019-05-09T23:42:00.515Z,9.83
2019-05-09T23:44:29.025Z,13.90
2019-05-09T23:46:57.486Z,10.03
2019-05-09T23:49:25.975Z,11.73
2019-05-09T23:51:54.526Z,15.37
2019-05-09T23:54:46.990Z,12.10
2019-05-09T23:57:29.877Z,12.33
